Time;durP1;ratioP1;P1;durP2;ratioP2;P2;SDS_P1;SDS_P2;PMS_P1;PMS_P2;Temp;Humidity;BMP_temperature;BMP_pressure;BME280_temperature;BME280_humidity;BME280_pressure;Samples;Min_cycle;Max_cycle;Signal;HPM_P1;HPM_P2
2020/12/20 00:00:13;;;;;;;20.60;13.82;;;6.20;99.90;;;;;;5034800;28;20415;-71
2020/12/20 00:02:40;;;;;;;19.85;14.30;;;6.20;99.90;;;;;;5034618;28;20084;-69
2020/12/20 00:05:07;;;;;;;19.48;14.57;;;6.30;99.90;;;;;;5033315;28;20069;-69
2020/12/20 00:07:33;;;;;;;22.45;13.45;;;6.20;99.90;;;;;;5035003;28;20079;-69
2020/12/20 00:09:59;;;;;;;22.90;14.98;;;6.30;99.90;;;;;;5035000;28;20034;-70
2020/12/20 00:12:25;;;;;;;20.33;13.82;;;6.20;99.90;;;;;;5034827;28;20025;-69
2020/12/20 00:14:50;;;;;;;23.27;15.20;;;6.20;99.90;;;;;;5032860;28;20076;-70
2020/12/20 00:17:16;;;;;;;22.73;14.98;;;6.20;99.90;;;;;;5035499;28;20029;-69
2020/12/20 00:19:42;;;;;;;25.30;14.65;;;6.20;99.90;;;;;;5035280;28;20075;-69
2020/12/20 00:22:13;;;;;;;20.80;13.55;;;6.20;99.90;;;;;;5035228;28;20035;-69
2020/12/20 00:24:40;;;;;;;19.75;14.40;;;6.20;99.90;;;;;;5034750;28;20032;-70
2020/12/20 00:27:10;;;;;;;21.80;14.75;;;6.10;99.90;;;;;;5034879;28;20040;-70
2020/12/20 00:29:37;;;;;;;26.48;13.82;;;6.10;99.90;;;;;;5027098;28;20423;-69
2020/12/20 00:32:08;;;;;;;22.75;15.10;;;6.00;99.90;;;;;;5015101;28;20037;-70
2020/12/20 00:34:34;;;;;;;22.63;15.20;;;6.10;99.90;;;;;;5014296;28;20384;-70
2020/12/20 00:37:00;;;;;;;23.10;14.70;;;6.10;99.90;;;;;;5014617;28;20049;-68
2020/12/20 00:39:26;;;;;;;23.33;15.52;;;6.20;99.90;;;;;;5015802;28;20492;-71
2020/12/20 00:41:55;;;;;;;25.25;16.85;;;6.10;99.90;;;;;;5015230;28;20049;-70
2020/12/20 00:44:22;;;;;;;20.63;14.95;;;6.20;99.90;;;;;;5014070;28;20026;-71
2020/12/20 00:46:49;;;;;;;22.60;16.17;;;6.10;99.90;;;;;;5014856;28;20033;-71
2020/12/20 00:49:15;;;;;;;23.42;15.55;;;6.20;99.90;;;;;;5015100;28;20022;-70
2020/12/20 00:51:40;;;;;;;23.67;16.73;;;6.20;99.90;;;;;;5015745;28;20055;-70
2020/12/20 00:54:06;;;;;;;22.80;16.95;;;6.20;99.90;;;;;;5016143;28;20030;-70
2020/12/20 00:56:35;;;;;;;28.08;18.60;;;6.20;99.90;;;;;;5018068;28;20014;-70
2020/12/20 00:59:01;;;;;;;26.63;18.13;;;6.30;99.90;;;;;;5020259;28;20022;-70
2020/12/20 01:01:27;;;;;;;25.48;16.60;;;6.20;99.90;;;;;;5034739;28;20110;-70
2020/12/20 01:03:54;;;;;;;20.92;16.02;;;6.20;99.90;;;;;;5037682;28;20097;-70
2020/12/20 01:06:21;;;;;;;24.67;15.98;;;6.10;99.90;;;;;;5048461;28;20093;-70
2020/12/20 01:08:47;;;;;;;25.02;15.77;;;6.20;99.90;;;;;;5049401;28;20036;-70
2020/12/20 01:11:14;;;;;;;21.77;14.93;;;6.20;99.90;;;;;;5046959;28;20522;-70
2020/12/20 01:13:43;;;;;;;22.45;15.80;;;6.10;99.90;;;;;;5049174;28;20033;-70
2020/12/20 01:16:26;;;;;;;22.17;16.02;;;6.20;99.90;;;;;;5055054;28;20021;-71
2020/12/20 01:18:53;;;;;;;23.60;15.43;;;6.10;99.90;;;;;;5055950;28;20085;-70
2020/12/20 01:21:19;;;;;;;19.27;14.05;;;6.10;99.90;;;;;;5048535;28;20029;-70
2020/12/20 01:23:45;;;;;;;22.45;15.38;;;6.20;99.90;;;;;;5033427;28;20057;-69
2020/12/20 01:26:11;;;;;;;19.92;14.15;;;6.20;99.90;;;;;;5056998;28;20029;-70
2020/12/20 01:28:37;;;;;;;26.58;16.13;;;6.20;99.90;;;;;;5058326;28;20033;-70
2020/12/20 01:31:05;;;;;;;21.27;14.25;;;6.10;99.90;;;;;;5057693;28;20077;-71
2020/12/20 01:33:30;;;;;;;21.27;15.77;;;6.10;99.90;;;;;;5050016;28;20037;-70
2020/12/20 01:35:56;;;;;;;20.10;14.60;;;6.10;99.90;;;;;;5038318;28;20523;-70
2020/12/20 01:38:22;;;;;;;20.10;14.18;;;6.10;99.90;;;;;;5053529;28;20037;-70
2020/12/20 01:40:54;;;;;;;22.20;15.98;;;6.20;99.90;;;;;;5044249;28;20116;-70
2020/12/20 01:43:20;;;;;;;23.58;16.00;;;6.20;99.90;;;;;;5038334;28;20052;-71
2020/12/20 01:45:46;;;;;;;21.42;15.63;;;6.20;99.90;;;;;;5041113;28;20037;-70
2020/12/20 01:48:12;;;;;;;20.42;15.52;;;6.20;99.90;;;;;;5038397;28;20044;-69
2020/12/20 01:50:39;;;;;;;23.85;15.25;;;6.20;99.90;;;;;;5038241;28;20027;-71
2020/12/20 01:53:05;;;;;;;22.33;15.52;;;6.10;99.90;;;;;;5040461;28;20032;-71
2020/12/20 01:55:32;;;;;;;22.52;15.65;;;6.20;99.90;;;;;;5041212;28;20045;-71
2020/12/20 02:00:35;;;;;;;26.00;15.80;;;6.20;99.90;;;;;;5036210;28;20045;-76
2020/12/20 02:03:00;;;;;;;21.40;15.13;;;6.20;99.90;;;;;;5031479;28;20026;-76
2020/12/20 02:05:26;;;;;;;20.90;14.55;;;6.20;99.90;;;;;;5049290;28;20036;-76
2020/12/20 02:07:52;;;;;;;17.95;13.55;;;6.20;99.90;;;;;;5051564;28;20103;-74
2020/12/20 02:10:17;;;;;;;19.65;14.18;;;6.10;99.90;;;;;;5051420;28;20029;-70
2020/12/20 02:12:44;;;;;;;21.40;14.60;;;6.10;99.90;;;;;;5051359;28;20424;-75
2020/12/20 02:15:11;;;;;;;19.95;14.23;;;6.10;99.90;;;;;;5033769;28;20025;-74
2020/12/20 02:17:37;;;;;;;19.20;13.90;;;6.10;99.90;;;;;;5051503;28;20028;-76
2020/12/20 02:20:03;;;;;;;21.42;16.05;;;6.10;99.90;;;;;;5051440;28;20029;-76
2020/12/20 02:22:29;;;;;;;18.95;15.13;;;6.10;99.90;;;;;;5051241;28;20100;-76
2020/12/20 02:24:55;;;;;;;19.98;13.93;;;6.10;99.90;;;;;;5050850;28;20041;-76
2020/12/20 02:27:20;;;;;;;17.95;12.82;;;6.10;99.90;;;;;;5033415;28;20495;-75
2020/12/20 02:29:46;;;;;;;19.65;13.48;;;6.10;99.90;;;;;;5051195;28;20029;-76
2020/12/20 02:32:11;;;;;;;20.63;14.38;;;6.10;99.90;;;;;;5049781;28;20152;-76
2020/12/20 02:34:37;;;;;;;18.90;14.50;;;6.10;99.90;;;;;;5051850;28;20048;-76
2020/12/20 02:37:03;;;;;;;21.52;13.82;;;6.10;99.90;;;;;;5053739;28;20020;-75
2020/12/20 02:39:28;;;;;;;20.30;13.35;;;6.10;99.90;;;;;;5053956;28;20051;-74
2020/12/20 02:41:55;;;;;;;17.90;12.80;;;6.10;99.90;;;;;;5036735;28;20060;-75
2020/12/20 02:44:21;;;;;;;18.92;12.82;;;6.10;99.90;;;;;;5037841;28;20389;-75
2020/12/20 02:46:47;;;;;;;17.50;12.65;;;6.10;99.90;;;;;;5038159;28;20021;-75
2020/12/20 02:49:13;;;;;;;18.75;13.73;;;6.10;99.90;;;;;;5037688;28;20048;-74
2020/12/20 02:51:39;;;;;;;18.85;12.57;;;6.10;99.90;;;;;;5055886;28;20158;-75
2020/12/20 02:54:05;;;;;;;19.85;12.65;;;6.10;99.90;;;;;;5054140;28;20044;-75
2020/12/20 02:56:31;;;;;;;19.23;13.10;;;6.00;99.90;;;;;;5055310;28;20021;-74
2020/12/20 02:58:57;;;;;;;18.05;11.98;;;6.00;99.90;;;;;;5050483;28;20021;-73
2020/12/20 03:01:22;;;;;;;17.25;13.32;;;6.10;99.90;;;;;;5050904;28;20032;-76
2020/12/20 03:03:48;;;;;;;17.48;12.77;;;6.10;99.90;;;;;;5050464;28;20503;-76
2020/12/20 03:06:14;;;;;;;20.42;12.95;;;6.10;99.90;;;;;;5050493;28;20036;-76
2020/12/20 03:08:39;;;;;;;17.48;12.15;;;6.10;99.90;;;;;;5032836;28;20033;-75
2020/12/20 03:11:05;;;;;;;16.88;12.52;;;6.10;99.90;;;;;;5050787;28;20027;-74
2020/12/20 03:13:31;;;;;;;19.38;12.85;;;6.00;99.90;;;;;;5032355;28;20037;-76
2020/12/20 03:15:56;;;;;;;17.15;12.07;;;6.00;99.90;;;;;;5032805;28;20087;-76
2020/12/20 03:18:22;;;;;;;17.38;12.40;;;6.00;99.90;;;;;;5032647;28;20435;-76
2020/12/20 03:20:48;;;;;;;17.88;13.30;;;6.00;99.90;;;;;;5050316;28;20021;-75
2020/12/20 03:23:13;;;;;;;17.05;12.52;;;6.00;99.90;;;;;;5039984;28;20135;-76
2020/12/20 03:25:39;;;;;;;16.55;11.82;;;6.00;99.90;;;;;;5012783;28;20088;-76
2020/12/20 03:28:05;;;;;;;16.00;12.32;;;6.50;99.90;;;;;;5030643;28;20067;-76
2020/12/20 03:30:30;;;;;;;18.63;13.10;;;6.00;99.90;;;;;;5030404;28;20032;-73
2020/12/20 03:32:56;;;;;;;16.05;11.80;;;6.10;99.90;;;;;;5012245;28;20041;-73
2020/12/20 03:35:22;;;;;;;19.50;13.05;;;6.10;99.90;;;;;;5030180;28;20053;-76
2020/12/20 03:37:50;;;;;;;18.17;12.20;;;6.10;99.90;;;;;;5030742;28;20037;-75
2020/12/20 03:40:17;;;;;;;17.52;12.85;;;6.00;99.90;;;;;;5013102;28;20021;-74
2020/12/20 03:42:43;;;;;;;16.67;12.55;;;6.00;99.90;;;;;;5012357;28;20545;-75
2020/12/20 03:45:09;;;;;;;13.70;10.77;;;6.10;99.90;;;;;;5030314;28;20053;-75
2020/12/20 03:47:34;;;;;;;14.45;10.20;;;6.00;99.90;;;;;;5030232;28;20075;-75
2020/12/20 03:50:00;;;;;;;17.30;11.50;;;6.00;99.90;;;;;;5042393;28;20056;-74
2020/12/20 03:52:26;;;;;;;16.80;12.50;;;6.00;99.90;;;;;;5050386;28;20029;-76
2020/12/20 03:54:51;;;;;;;17.88;12.05;;;6.00;99.90;;;;;;5049736;28;20025;-75
2020/12/20 03:57:17;;;;;;;17.20;12.57;;;6.00;99.90;;;;;;5050260;28;20028;-76
2020/12/20 03:59:43;;;;;;;20.60;12.98;;;6.00;99.90;;;;;;5048159;28;20028;-73
2020/12/20 04:02:08;;;;;;;15.07;11.82;;;6.00;99.90;;;;;;5032377;28;20025;-76
2020/12/20 04:04:34;;;;;;;15.00;11.18;;;6.00;99.90;;;;;;5032718;28;20480;-73
2020/12/20 04:06:59;;;;;;;20.17;11.77;;;6.00;99.90;;;;;;5051322;28;20416;-73
2020/12/20 04:09:25;;;;;;;16.88;11.35;;;6.00;99.90;;;;;;5050692;28;20021;-76
2020/12/20 04:11:51;;;;;;;14.05;10.70;;;6.10;99.90;;;;;;5052207;28;20103;-72
2020/12/20 04:14:16;;;;;;;17.48;11.20;;;6.10;99.90;;;;;;5053313;28;20104;-76
2020/12/20 04:16:42;;;;;;;21.15;12.38;;;6.10;99.90;;;;;;5053723;28;20123;-75
2020/12/20 04:19:08;;;;;;;18.42;13.35;;;6.10;99.90;;;;;;5053931;28;20067;-75
2020/12/20 04:21:33;;;;;;;16.92;12.82;;;6.10;99.90;;;;;;5053782;28;20025;-74
2020/12/20 04:23:59;;;;;;;19.90;13.32;;;6.10;99.90;;;;;;5035466;28;20044;-77
2020/12/20 04:26:25;;;;;;;16.40;11.60;;;6.10;99.90;;;;;;5053521;28;20019;-75
2020/12/20 04:28:50;;;;;;;16.38;12.15;;;6.10;99.90;;;;;;5036504;28;20025;-75
2020/12/20 04:31:16;;;;;;;21.25;14.00;;;6.10;99.90;;;;;;5056992;28;20545;-75
2020/12/20 04:33:42;;;;;;;25.33;16.17;;;6.20;99.90;;;;;;5055058;28;20049;-74
2020/12/20 04:36:07;;;;;;;24.77;16.33;;;6.10;99.90;;;;;;5058850;28;20488;-76
2020/12/20 04:38:34;;;;;;;21.98;16.38;;;6.10;99.90;;;;;;5054588;28;20018;-76
2020/12/20 04:41:01;;;;;;;24.50;16.88;;;6.00;99.90;;;;;;5036654;28;20029;-76
2020/12/20 04:43:26;;;;;;;22.17;15.10;;;6.10;99.90;;;;;;5054765;28;20032;-76
2020/12/20 04:45:53;;;;;;;19.05;13.85;;;6.00;99.90;;;;;;5053576;28;20029;-74
2020/12/20 04:48:20;;;;;;;17.48;12.73;;;6.10;99.90;;;;;;5053198;28;20114;-76
2020/12/20 04:50:47;;;;;;;17.98;13.77;;;6.10;99.90;;;;;;5051332;28;20543;-76
2020/12/20 04:53:13;;;;;;;19.77;13.80;;;6.00;99.90;;;;;;5052582;28;20036;-75
2020/12/20 04:55:39;;;;;;;19.70;13.25;;;6.00;99.90;;;;;;5053084;28;20029;-75
2020/12/20 04:58:08;;;;;;;19.77;12.98;;;6.00;99.90;;;;;;5053121;28;20412;-76
2020/12/20 05:00:35;;;;;;;16.75;13.20;;;6.00;99.90;;;;;;5035997;28;20083;-71
2020/12/20 05:03:00;;;;;;;17.73;12.15;;;6.00;99.90;;;;;;5055682;28;20124;-72
2020/12/20 05:05:26;;;;;;;16.90;12.15;;;6.00;99.90;;;;;;5052490;28;20023;-76
2020/12/20 05:07:52;;;;;;;17.17;12.20;;;6.00;99.90;;;;;;5038094;28;20074;-76
2020/12/20 05:10:18;;;;;;;15.75;12.02;;;6.00;99.90;;;;;;5053552;28;20021;-76
2020/12/20 05:12:44;;;;;;;18.65;12.77;;;5.90;99.90;;;;;;5052350;28;20112;-76
2020/12/20 05:15:21;;;;;;;15.35;12.35;;;5.90;99.90;;;;;;5052373;28;20461;-76
2020/12/20 05:17:47;;;;;;;18.25;12.98;;;5.90;99.90;;;;;;5052469;28;20051;-72
2020/12/20 05:20:34;;;;;;;20.20;14.25;;;5.90;99.90;;;;;;5052921;28;20025;-74
2020/12/20 05:23:00;;;;;;;23.95;15.23;;;5.90;99.90;;;;;;5049842;28;20036;-76
2020/12/20 05:25:26;;;;;;;20.63;14.65;;;5.90;99.90;;;;;;5052859;28;20020;-75
2020/12/20 05:28:03;;;;;;;20.38;14.55;;;5.80;99.90;;;;;;5052869;28;20032;-76
2020/12/20 05:30:28;;;;;;;18.63;14.65;;;5.80;99.90;;;;;;5053045;28;20021;-76
2020/12/20 05:32:54;;;;;;;24.23;15.90;;;5.80;99.90;;;;;;5052364;28;20033;-76
2020/12/20 05:35:20;;;;;;;21.48;16.00;;;5.90;99.90;;;;;;5052668;28;20033;-76
2020/12/20 05:37:46;;;;;;;23.20;16.23;;;5.80;99.90;;;;;;5052778;28;20032;-76
2020/12/20 05:40:29;;;;;;;19.40;14.70;;;5.80;99.90;;;;;;5053002;28;20352;-76
2020/12/20 05:42:58;;;;;;;23.17;15.95;;;5.80;99.90;;;;;;5052079;28;20029;-76
2020/12/20 05:45:30;;;;;;;21.77;15.50;;;5.80;99.90;;;;;;5032817;28;20510;-76
2020/12/20 05:47:56;;;;;;;18.90;13.05;;;5.70;99.90;;;;;;5033905;28;20609;-75
2020/12/20 05:50:28;;;;;;;16.48;12.43;;;5.80;99.90;;;;;;5032318;28;20411;-74
2020/12/20 05:53:04;;;;;;;22.00;14.48;;;5.80;99.90;;;;;;5051257;28;20032;-73
2020/12/20 05:55:38;;;;;;;19.08;13.65;;;5.80;99.90;;;;;;5051778;28;20025;-75
2020/12/20 05:58:11;;;;;;;23.95;14.40;;;5.80;99.90;;;;;;5052382;28;20354;-76
2020/12/20 06:00:38;;;;;;;20.33;14.02;;;5.70;99.90;;;;;;5033990;28;20029;-76
2020/12/20 06:03:05;;;;;;;19.70;14.00;;;5.70;99.90;;;;;;5051736;28;20029;-73
2020/12/20 06:05:49;;;;;;;19.75;14.80;;;5.70;99.90;;;;;;5051006;28;20033;-75
2020/12/20 06:08:20;;;;;;;20.60;14.38;;;5.70;99.90;;;;;;5051418;28;20029;-75
2020/12/20 06:10:51;;;;;;;17.48;13.75;;;5.70;99.90;;;;;;5051426;28;20021;-75
2020/12/20 06:13:22;;;;;;;19.83;14.88;;;5.70;99.90;;;;;;5033306;28;20025;-75
2020/12/20 06:15:55;;;;;;;18.65;13.88;;;5.70;99.90;;;;;;5051070;28;20127;-75
2020/12/20 06:18:25;;;;;;;19.30;13.98;;;5.70;99.90;;;;;;5051257;28;20032;-73
2020/12/20 06:20:54;;;;;;;19.63;14.52;;;5.70;99.90;;;;;;5051057;28;20087;-74
2020/12/20 06:23:22;;;;;;;25.30;16.60;;;5.60;99.90;;;;;;5050697;28;20028;-75
2020/12/20 06:25:49;;;;;;;18.95;14.50;;;5.70;99.90;;;;;;5050980;28;20028;-74
2020/12/20 06:28:17;;;;;;;18.67;13.90;;;5.60;99.90;;;;;;5050867;28;20074;-76
2020/12/20 06:30:43;;;;;;;18.55;13.50;;;5.60;99.90;;;;;;5033075;28;20035;-74
2020/12/20 06:33:21;;;;;;;22.13;13.38;;;5.60;99.90;;;;;;5050363;28;20060;-76
2020/12/20 06:35:50;;;;;;;15.43;12.05;;;5.60;99.90;;;;;;5050679;28;20469;-76
2020/12/20 06:38:19;;;;;;;15.88;12.13;;;5.60;99.90;;;;;;5050967;28;20465;-75
2020/12/20 06:40:45;;;;;;;15.50;11.40;;;5.60;99.90;;;;;;5030789;28;20347;-72
2020/12/20 06:43:11;;;;;;;16.48;12.13;;;5.60;99.90;;;;;;5030350;28;20083;-76
2020/12/20 06:45:42;;;;;;;14.52;11.25;;;5.60;99.90;;;;;;5030836;28;20067;-76
2020/12/20 06:48:09;;;;;;;17.67;13.13;;;5.60;99.90;;;;;;5013047;28;20021;-76
2020/12/20 06:50:38;;;;;;;18.23;13.45;;;5.60;99.90;;;;;;5030947;28;20032;-76
2020/12/20 06:53:07;;;;;;;17.23;13.13;;;5.70;99.90;;;;;;5012747;28;20432;-73
2020/12/20 06:55:33;;;;;;;16.65;12.60;;;5.70;99.90;;;;;;5030729;28;20068;-76
2020/12/20 06:58:02;;;;;;;16.00;12.15;;;5.60;99.90;;;;;;5036502;28;20256;-76
2020/12/20 07:00:49;;;;;;;19.67;14.05;;;5.60;99.90;;;;;;5050774;28;20108;-75
2020/12/20 07:03:21;;;;;;;19.15;12.43;;;5.60;99.90;;;;;;5050341;28;20029;-75
2020/12/20 07:05:48;;;;;;;17.80;13.33;;;5.60;99.90;;;;;;5050777;28;20029;-73
2020/12/20 07:08:26;;;;;;;17.10;12.55;;;5.70;99.90;;;;;;5050791;28;20036;-73
2020/12/20 07:10:57;;;;;;;20.67;12.57;;;5.60;99.90;;;;;;5051179;28;20079;-75
2020/12/20 07:13:34;;;;;;;19.75;12.95;;;5.60;99.90;;;;;;5032705;28;20025;-76
2020/12/20 07:16:12;;;;;;;17.02;12.82;;;5.60;99.90;;;;;;5032572;28;20473;-73
2020/12/20 07:18:41;;;;;;;14.60;11.60;;;5.70;99.90;;;;;;5031333;28;20029;-73
2020/12/20 07:21:11;;;;;;;18.38;11.77;;;5.70;99.90;;;;;;5050260;28;20028;-75
2020/12/20 07:23:42;;;;;;;15.10;10.43;;;5.70;99.90;;;;;;5011479;28;20021;-74
2020/12/20 07:26:09;;;;;;;13.60;10.68;;;5.70;99.90;;;;;;5025601;28;20071;-74
2020/12/20 07:28:35;;;;;;;12.52;9.93;;;5.80;99.90;;;;;;5027868;28;20030;-75
2020/12/20 07:31:01;;;;;;;16.70;10.65;;;5.90;99.90;;;;;;5010358;28;20036;-73
2020/12/20 07:33:26;;;;;;;15.60;10.75;;;5.90;99.90;;;;;;5009787;28;20105;-73
2020/12/20 07:35:52;;;;;;;14.25;10.13;;;6.00;99.90;;;;;;4991456;28;20165;-75
2020/12/20 07:38:19;;;;;;;13.20;9.85;;;6.00;99.90;;;;;;5009707;28;20018;-74
2020/12/20 07:40:44;;;;;;;12.10;9.40;;;6.10;99.90;;;;;;5010766;28;20220;-75
2020/12/20 07:43:10;;;;;;;14.07;10.95;;;6.20;99.90;;;;;;5009107;28;20029;-74
2020/12/20 07:45:36;;;;;;;14.48;10.35;;;6.30;99.90;;;;;;5030123;28;20033;-75
2020/12/20 07:48:01;;;;;;;13.40;10.05;;;6.40;99.90;;;;;;5033558;28;20052;-74
2020/12/20 07:50:27;;;;;;;14.38;9.90;;;6.40;99.90;;;;;;5048864;28;20025;-73
2020/12/20 07:52:53;;;;;;;14.82;11.25;;;6.50;99.90;;;;;;5016215;28;20018;-71
2020/12/20 07:55:19;;;;;;;14.93;11.32;;;6.50;99.90;;;;;;5013800;28;20026;-73
2020/12/20 07:57:48;;;;;;;18.58;13.73;;;6.60;99.90;;;;;;5014169;28;20014;-75
2020/12/20 08:00:15;;;;;;;19.13;13.88;;;6.70;99.90;;;;;;5014292;28;20109;-74
2020/12/20 08:02:41;;;;;;;19.83;14.75;;;6.80;99.90;;;;;;5013786;28;20520;-74
2020/12/20 08:05:12;;;;;;;19.15;14.63;;;6.90;99.90;;;;;;4996445;28;20030;-75
2020/12/20 08:07:38;;;;;;;17.15;12.38;;;7.00;99.90;;;;;;5013810;28;20088;-75
2020/12/20 08:10:04;;;;;;;17.75;11.80;;;7.00;99.90;;;;;;5018166;28;20032;-73
2020/12/20 08:12:32;;;;;;;15.57;11.48;;;7.10;99.90;;;;;;5029024;28;20036;-72
2020/12/20 08:15:08;;;;;;;14.18;11.50;;;7.20;99.90;;;;;;5016114;28;20026;-74
2020/12/20 08:17:35;;;;;;;15.18;11.25;;;7.30;99.90;;;;;;5014043;28;20022;-76
2020/12/20 08:20:05;;;;;;;14.73;11.52;;;7.50;99.90;;;;;;4995769;28;20486;-74
2020/12/20 08:22:33;;;;;;;17.60;10.35;;;7.70;99.90;;;;;;5028117;28;20021;-74
2020/12/20 08:25:19;;;;;;;22.90;14.75;;;7.90;99.90;;;;;;5032847;28;20025;-74
2020/12/20 08:27:45;;;;;;;21.10;14.15;;;8.00;99.90;;;;;;5032484;28;20214;-74
2020/12/20 08:30:11;;;;;;;23.60;14.45;;;8.20;99.90;;;;;;5012965;28;20029;-74
2020/12/20 08:32:41;;;;;;;14.52;11.70;;;8.50;99.90;;;;;;5013689;28;20101;-74
2020/12/20 08:35:14;;;;;;;10.20;8.45;;;8.90;99.90;;;;;;4995776;28;20028;-75
2020/12/20 08:37:41;;;;;;;11.23;8.48;;;8.90;99.90;;;;;;5013312;28;20018;-76
2020/12/20 08:40:15;;;;;;;8.85;7.35;;;8.70;99.90;;;;;;5012893;28;20383;-73
2020/12/20 08:42:42;;;;;;;10.80;7.70;;;8.50;99.90;;;;;;4995382;28;20113;-74
2020/12/20 08:45:16;;;;;;;11.88;8.02;;;8.20;99.90;;;;;;5012868;28;20033;-77
2020/12/20 08:47:43;;;;;;;11.93;8.77;;;8.00;99.90;;;;;;5012968;28;20022;-75
2020/12/20 08:50:10;;;;;;;10.45;8.10;;;7.90;99.90;;;;;;5007680;28;20025;-75
2020/12/20 08:52:36;;;;;;;14.52;8.88;;;8.00;99.90;;;;;;5031539;28;20029;-73
2020/12/20 08:55:14;;;;;;;10.27;8.48;;;8.00;99.90;;;;;;5037024;28;20449;-74
2020/12/20 08:57:39;;;;;;;11.80;8.70;;;8.30;99.90;;;;;;5034033;28;20026;-75
2020/12/20 09:00:14;;;;;;;12.10;8.38;;;8.50;99.90;;;;;;5015807;28;20079;-74
2020/12/20 09:02:40;;;;;;;12.98;8.48;;;8.90;99.90;;;;;;5033658;28;20025;-74
2020/12/20 09:05:14;;;;;;;13.90;9.60;;;9.40;99.90;;;;;;5032853;28;20497;-75
2020/12/20 09:07:44;;;;;;;9.35;7.30;;;9.90;99.90;;;;;;5034046;28;20041;-73
2020/12/20 09:10:20;;;;;;;6.78;6.07;;;10.40;99.90;;;;;;5035393;28;20124;-74
2020/12/20 09:13:06;;;;;;;8.98;7.28;;;10.80;99.90;;;;;;5048439;28;20057;-75
2020/12/20 09:15:37;;;;;;;8.95;6.93;;;11.20;99.90;;;;;;5028633;28;20075;-73
2020/12/20 09:18:21;;;;;;;10.15;6.90;;;11.90;99.90;;;;;;5045878;28;20375;-76
2020/12/20 09:20:48;;;;;;;9.25;7.68;;;13.30;99.90;;;;;;5033357;28;20021;-75
2020/12/20 09:23:17;;;;;;;7.20;5.88;;;13.70;99.90;;;;;;5040000;28;20034;-73
2020/12/20 09:25:43;;;;;;;7.03;5.28;;;13.60;99.90;;;;;;5025746;28;20044;-75
2020/12/20 09:28:14;;;;;;;9.05;6.25;;;13.40;99.90;;;;;;5020613;28;20061;-76
2020/12/20 09:30:46;;;;;;;7.05;5.80;;;13.20;99.90;;;;;;5033252;28;20025;-76
2020/12/20 09:33:24;;;;;;;7.68;5.85;;;13.20;99.90;;;;;;5032788;28;20026;-72
2020/12/20 09:35:49;;;;;;;10.90;7.40;;;13.30;99.90;;;;;;5014552;28;20096;-76
2020/12/20 09:38:15;;;;;;;10.85;7.28;;;13.40;99.90;;;;;;5015087;28;20590;-73
2020/12/20 09:40:41;;;;;;;11.27;7.30;;;13.40;99.90;;;;;;5033062;28;20036;-76
2020/12/20 09:43:06;;;;;;;8.75;7.20;;;13.40;99.90;;;;;;5015122;28;20116;-75
2020/12/20 09:45:32;;;;;;;12.00;6.90;;;13.30;99.90;;;;;;5043651;28;20033;-76
2020/12/20 09:47:58;;;;;;;9.13;6.93;;;13.20;99.90;;;;;;5029287;28;20397;-74
2020/12/20 09:50:23;;;;;;;8.93;7.70;;;13.10;99.90;;;;;;5043387;28;20563;-76
2020/12/20 09:52:49;;;;;;;8.35;7.50;;;12.80;99.90;;;;;;5014592;28;20025;-77
2020/12/20 09:55:15;;;;;;;10.05;7.57;;;12.60;99.90;;;;;;5051674;28;20017;-75
2020/12/20 09:57:40;;;;;;;9.52;7.97;;;12.40;99.90;;;;;;5051846;28;20515;-77
2020/12/20 10:00:06;;;;;;;12.25;8.20;;;12.20;99.90;;;;;;5027336;28;20060;-77
2020/12/20 10:02:32;;;;;;;12.88;8.38;;;11.90;99.90;;;;;;5032317;28;20026;-77
2020/12/20 10:04:57;;;;;;;11.45;8.52;;;12.10;99.90;;;;;;5033412;28;20070;-77
2020/12/20 10:07:23;;;;;;;12.13;8.15;;;12.20;99.90;;;;;;5043687;28;20376;-76
2020/12/20 10:09:49;;;;;;;11.05;7.95;;;11.70;99.90;;;;;;5011989;28;20034;-78
2020/12/20 10:12:17;;;;;;;13.23;9.05;;;11.40;99.90;;;;;;5011541;28;20014;-77
2020/12/20 10:14:43;;;;;;;13.38;9.40;;;11.40;99.90;;;;;;4993331;28;20018;-77
2020/12/20 10:17:09;;;;;;;11.70;9.75;;;11.00;99.90;;;;;;5011607;28;20071;-75
2020/12/20 10:19:35;;;;;;;14.30;10.93;;;10.40;99.90;;;;;;5010898;28;20030;-77
2020/12/20 10:22:00;;;;;;;13.95;11.63;;;10.30;99.90;;;;;;4992810;28;20033;-76
2020/12/20 10:24:26;;;;;;;13.38;10.95;;;11.30;99.90;;;;;;4991783;28;20027;-77
2020/12/20 10:26:52;;;;;;;15.02;11.30;;;10.80;99.90;;;;;;5010233;28;20025;-75
2020/12/20 10:29:18;;;;;;;15.35;12.38;;;10.70;99.90;;;;;;5010764;28;20069;-75
2020/12/20 10:31:45;;;;;;;18.48;12.93;;;10.60;99.90;;;;;;5015913;28;20029;-75
2020/12/20 10:34:11;;;;;;;16.25;12.48;;;10.40;99.90;;;;;;5009996;28;20030;-75
2020/12/20 10:36:38;;;;;;;18.17;12.95;;;10.40;99.90;;;;;;5026498;28;20105;-74
2020/12/20 10:39:06;;;;;;;16.80;12.48;;;10.40;99.90;;;;;;5050485;28;20030;-76
2020/12/20 10:41:39;;;;;;;15.88;12.30;;;10.50;99.90;;;;;;5050481;28;20067;-76
2020/12/20 10:44:05;;;;;;;15.00;12.10;;;10.60;99.90;;;;;;5050600;28;20071;-75
2020/12/20 10:46:35;;;;;;;16.25;12.30;;;10.70;99.90;;;;;;5032613;28;20025;-76
2020/12/20 10:49:02;;;;;;;17.13;12.60;;;10.50;99.90;;;;;;5050422;28;20406;-76
2020/12/20 10:51:28;;;;;;;17.73;12.48;;;10.50;99.90;;;;;;5050489;28;20477;-77
2020/12/20 10:53:53;;;;;;;16.58;12.05;;;10.40;99.90;;;;;;5049482;28;20079;-76
2020/12/20 10:56:19;;;;;;;18.63;12.40;;;10.60;99.90;;;;;;5053185;28;20035;-76
2020/12/20 10:58:47;;;;;;;15.02;12.18;;;10.70;99.90;;;;;;5027394;28;644958;-75
2020/12/20 11:01:20;;;;;;;19.60;13.27;;;10.80;99.90;;;;;;5025675;28;20040;-76
2020/12/20 11:03:47;;;;;;;21.05;13.52;;;10.90;99.90;;;;;;5052438;28;20021;-78
2020/12/20 11:06:24;;;;;;;20.02;12.65;;;11.30;99.90;;;;;;5027673;28;20109;-75
2020/12/20 11:08:51;;;;;;;20.70;13.32;;;11.50;99.90;;;;;;5031247;28;20057;-76
2020/12/20 11:11:20;;;;;;;15.27;12.07;;;11.80;99.90;;;;;;5033528;28;20128;-75
2020/12/20 11:13:46;;;;;;;14.70;11.48;;;12.10;99.90;;;;;;5032230;28;20052;-75
2020/12/20 11:16:21;;;;;;;15.85;11.73;;;12.30;99.90;;;;;;5033301;28;20043;-77
2020/12/20 11:18:47;;;;;;;16.73;11.88;;;12.60;99.90;;;;;;5012721;28;20049;-76
2020/12/20 11:21:14;;;;;;;15.57;11.75;;;12.70;99.90;;;;;;5010517;28;20497;-76
2020/12/20 11:23:41;;;;;;;17.52;12.95;;;12.90;99.90;;;;;;5037475;28;20068;-76
2020/12/20 11:26:14;;;;;;;15.50;11.30;;;15.10;99.90;;;;;;5042954;28;20057;-76
2020/12/20 11:28:41;;;;;;;11.93;10.57;;;18.30;99.90;;;;;;5013039;28;20029;-75
2020/12/20 11:31:09;;;;;;;14.10;10.57;;;20.50;97.30;;;;;;5020660;28;20040;-77
2020/12/20 11:33:35;;;;;;;11.68;9.60;;;21.70;91.50;;;;;;5011549;28;20125;-77
2020/12/20 11:36:01;;;;;;;11.30;10.13;;;21.80;89.30;;;;;;5032629;28;20021;-77
2020/12/20 11:38:27;;;;;;;13.60;10.40;;;21.30;86.90;;;;;;5016109;28;20026;-76
2020/12/20 11:40:53;;;;;;;14.90;11.07;;;20.40;89.10;;;;;;5009368;28;20392;-76
2020/12/20 11:43:18;;;;;;;13.15;11.55;;;19.70;92.00;;;;;;5011133;28;20418;-76
2020/12/20 11:45:47;;;;;;;14.15;10.93;;;19.90;90.60;;;;;;5012379;28;20022;-76
2020/12/20 11:48:14;;;;;;;14.30;11.25;;;19.20;91.30;;;;;;5010718;28;20026;-76
2020/12/20 11:50:40;;;;;;;13.15;11.50;;;18.00;92.40;;;;;;5008620;28;20034;-76
2020/12/20 11:53:06;;;;;;;13.30;11.48;;;17.00;94.60;;;;;;5009969;28;20506;-76
2020/12/20 11:55:32;;;;;;;13.05;10.43;;;16.10;95.90;;;;;;5010481;28;20087;-76
2020/12/20 11:57:58;;;;;;;14.57;10.38;;;15.50;97.30;;;;;;4993352;28;20030;-76
2020/12/20 12:00:25;;;;;;;12.80;10.30;;;15.00;98.80;;;;;;5010565;28;20115;-76
2020/12/20 12:02:52;;;;;;;13.38;9.48;;;14.80;99.30;;;;;;5010242;28;20026;-77
2020/12/20 12:05:17;;;;;;;12.55;9.63;;;14.50;99.50;;;;;;5025511;28;20164;-73
2020/12/20 12:07:43;;;;;;;12.18;9.25;;;14.20;99.90;;;;;;5023224;28;20093;-75
2020/12/20 12:10:09;;;;;;;12.40;9.80;;;14.00;99.90;;;;;;5018355;28;20493;-75
2020/12/20 12:12:34;;;;;;;10.77;9.68;;;13.90;99.90;;;;;;5024141;28;20033;-76
2020/12/20 12:15:00;;;;;;;12.38;9.90;;;13.70;99.90;;;;;;5029697;28;20236;-76
2020/12/20 12:17:25;;;;;;;12.20;9.00;;;13.50;99.90;;;;;;5011470;28;20095;-76
2020/12/20 12:19:52;;;;;;;10.52;8.55;;;13.20;99.90;;;;;;5010480;28;20018;-76
2020/12/20 12:22:17;;;;;;;10.95;9.27;;;13.00;99.90;;;;;;4992907;28;20022;-75
2020/12/20 12:24:43;;;;;;;11.23;9.30;;;12.80;99.90;;;;;;4992005;28;20663;-75
2020/12/20 12:27:09;;;;;;;10.20;8.43;;;12.50;99.90;;;;;;5010838;28;20030;-72
2020/12/20 12:29:34;;;;;;;10.80;9.07;;;12.50;99.90;;;;;;5010432;28;20018;-76
2020/12/20 12:32:00;;;;;;;11.73;9.23;;;12.30;99.90;;;;;;5011122;28;20525;-75
2020/12/20 12:34:26;;;;;;;9.38;8.20;;;12.20;99.90;;;;;;5023246;28;20354;-76
2020/12/20 12:36:52;;;;;;;12.38;9.18;;;12.20;99.90;;;;;;5053215;28;20377;-75
2020/12/20 12:39:18;;;;;;;11.00;7.80;;;12.30;99.90;;;;;;5034973;28;20044;-73